sensor_id;sensor_type;location;lat;lon;timestamp;temperature;humidity
56044;DHT22;41912;51.022;3.664;2022-12-24T00:02:00;12.10;99.90
56044;DHT22;41912;51.022;3.664;2022-12-24T00:04:25;12.00;99.90
56044;DHT22;41912;51.022;3.664;2022-12-24T00:06:51;12.00;99.90
56044;DHT22;41912;51.022;3.664;2022-12-24T00:09:17;12.00;99.90
56044;DHT22;41912;51.022;3.664;2022-12-24T00:11:42;12.10;99.90
56044;DHT22;41912;51.022;3.664;2022-12-24T00:14:11;12.10;99.90
56044;DHT22;41912;51.022;3.664;2022-12-24T00:16:40;12.10;99.90
56044;DHT22;41912;51.022;3.664;2022-12-24T00:19:09;12.00;99.90
56044;DHT22;41912;51.022;3.664;2022-12-24T00:21:35;12.00;99.90
56044;DHT22;41912;51.022;3.664;2022-12-24T00:24:03;12.10;99.90
56044;DHT22;41912;51.022;3.664;2022-12-24T00:26:31;12.10;99.90
56044;DHT22;41912;51.022;3.664;2022-12-24T00:28:56;12.10;99.90
56044;DHT22;41912;51.022;3.664;2022-12-24T00:31:22;12.10;99.90
56044;DHT22;41912;51.022;3.664;2022-12-24T00:33:48;12.20;99.90
56044;DHT22;41912;51.022;3.664;2022-12-24T00:36:14;12.20;99.90
56044;DHT22;41912;51.022;3.664;2022-12-24T00:38:40;12.20;99.90
56044;DHT22;41912;51.022;3.664;2022-12-24T00:41:07;12.20;99.90
56044;DHT22;41912;51.022;3.664;2022-12-24T00:43:50;12.20;99.90
56044;DHT22;41912;51.022;3.664;2022-12-24T00:46:18;12.20;99.90
56044;DHT22;41912;51.022;3.664;2022-12-24T00:48:47;12.20;99.90
56044;DHT22;41912;51.022;3.664;2022-12-24T00:51:13;12.10;99.90
56044;DHT22;41912;51.022;3.664;2022-12-24T00:53:42;12.10;99.90
56044;DHT22;41912;51.022;3.664;2022-12-24T00:56:08;12.10;99.90
56044;DHT22;41912;51.022;3.664;2022-12-24T00:58:33;12.10;99.90
56044;DHT22;41912;51.022;3.664;2022-12-24T01:01:00;12.10;99.90
56044;DHT22;41912;51.022;3.664;2022-12-24T01:03:28;12.10;99.90
56044;DHT22;41912;51.022;3.664;2022-12-24T01:06:05;12.10;99.90
56044;DHT22;41912;51.022;3.664;2022-12-24T01:08:31;12.10;99.90
56044;DHT22;41912;51.022;3.664;2022-12-24T01:10:57;12.10;99.90
56044;DHT22;41912;51.022;3.664;2022-12-24T01:13:23;12.10;99.90
56044;DHT22;41912;51.022;3.664;2022-12-24T01:15:52;12.00;99.90
56044;DHT22;41912;51.022;3.664;2022-12-24T01:18:18;12.00;99.90
56044;DHT22;41912;51.022;3.664;2022-12-24T01:20:44;11.90;99.90
56044;DHT22;41912;51.022;3.664;2022-12-24T01:23:10;11.90;99.90
56044;DHT22;41912;51.022;3.664;2022-12-24T01:25:38;12.00;99.90
56044;DHT22;41912;51.022;3.664;2022-12-24T01:28:04;11.90;99.90
56044;DHT22;41912;51.022;3.664;2022-12-24T01:30:32;12.00;99.90
56044;DHT22;41912;51.022;3.664;2022-12-24T01:33:01;12.00;99.90
56044;DHT22;41912;51.022;3.664;2022-12-24T01:35:27;12.00;99.90
56044;DHT22;41912;51.022;3.664;2022-12-24T01:37:53;12.10;99.90
56044;DHT22;41912;51.022;3.664;2022-12-24T01:40:18;12.10;99.90
56044;DHT22;41912;51.022;3.664;2022-12-24T01:43:04;12.10;99.90
56044;DHT22;41912;51.022;3.664;2022-12-24T01:45:56;12.10;99.90
56044;DHT22;41912;51.022;3.664;2022-12-24T01:51:06;12.10;99.90
56044;DHT22;41912;51.022;3.664;2022-12-24T01:53:35;12.10;99.90
56044;DHT22;41912;51.022;3.664;2022-12-24T01:56:02;12.00;99.90
56044;DHT22;41912;51.022;3.664;2022-12-24T01:58:28;12.00;99.90
56044;DHT22;41912;51.022;3.664;2022-12-24T02:00:54;11.90;99.90
56044;DHT22;41912;51.022;3.664;2022-12-24T02:03:20;12.00;99.90
56044;DHT22;41912;51.022;3.664;2022-12-24T02:05:54;12.00;99.90
56044;DHT22;41912;51.022;3.664;2022-12-24T02:08:22;12.00;99.90
56044;DHT22;41912;51.022;3.664;2022-12-24T02:10:48;12.00;99.90
56044;DHT22;41912;51.022;3.664;2022-12-24T02:13:17;12.00;99.90
56044;DHT22;41912;51.022;3.664;2022-12-24T02:25:17;12.10;99.90
56044;DHT22;41912;51.022;3.664;2022-12-24T02:28:03;12.10;99.90
56044;DHT22;41912;51.022;3.664;2022-12-24T02:30:51;12.00;99.90
56044;DHT22;41912;51.022;3.664;2022-12-24T02:36:06;12.00;99.90
56044;DHT22;41912;51.022;3.664;2022-12-24T02:41:21;12.00;99.90
56044;DHT22;41912;51.022;3.664;2022-12-24T02:43:49;11.90;99.90
56044;DHT22;41912;51.022;3.664;2022-12-24T02:46:25;12.00;99.90
56044;DHT22;41912;51.022;3.664;2022-12-24T02:48:52;11.90;99.90
56044;DHT22;41912;51.022;3.664;2022-12-24T02:51:22;11.90;99.90
56044;DHT22;41912;51.022;3.664;2022-12-24T02:53:49;11.90;99.90
56044;DHT22;41912;51.022;3.664;2022-12-24T02:56:44;11.90;99.90
56044;DHT22;41912;51.022;3.664;2022-12-24T03:05:14;11.80;99.90
56044;DHT22;41912;51.022;3.664;2022-12-24T03:10:36;11.80;99.90
56044;DHT22;41912;51.022;3.664;2022-12-24T03:13:12;11.70;99.90
56044;DHT22;41912;51.022;3.664;2022-12-24T03:15:39;11.80;99.90
56044;DHT22;41912;51.022;3.664;2022-12-24T03:18:08;11.80;99.90
56044;DHT22;41912;51.022;3.664;2022-12-24T03:20:39;11.80;99.90
56044;DHT22;41912;51.022;3.664;2022-12-24T03:23:06;11.80;99.90
56044;DHT22;41912;51.022;3.664;2022-12-24T03:25:33;11.70;99.90
56044;DHT22;41912;51.022;3.664;2022-12-24T03:28:02;11.70;99.90
56044;DHT22;41912;51.022;3.664;2022-12-24T03:30:29;11.70;99.90
56044;DHT22;41912;51.022;3.664;2022-12-24T03:32:55;11.70;99.90
56044;DHT22;41912;51.022;3.664;2022-12-24T03:35:21;11.70;99.90
56044;DHT22;41912;51.022;3.664;2022-12-24T03:37:46;11.70;99.90
56044;DHT22;41912;51.022;3.664;2022-12-24T03:40:12;11.70;99.90
56044;DHT22;41912;51.022;3.664;2022-12-24T03:42:38;11.60;99.90
56044;DHT22;41912;51.022;3.664;2022-12-24T03:45:04;11.60;99.90
56044;DHT22;41912;51.022;3.664;2022-12-24T03:47:30;11.60;99.90
56044;DHT22;41912;51.022;3.664;2022-12-24T03:49:56;11.60;99.90
56044;DHT22;41912;51.022;3.664;2022-12-24T03:52:22;11.70;99.90
56044;DHT22;41912;51.022;3.664;2022-12-24T03:54:47;11.70;99.90
56044;DHT22;41912;51.022;3.664;2022-12-24T03:57:13;11.70;99.90
56044;DHT22;41912;51.022;3.664;2022-12-24T03:59:39;11.70;99.90
56044;DHT22;41912;51.022;3.664;2022-12-24T04:02:04;11.70;99.90
56044;DHT22;41912;51.022;3.664;2022-12-24T04:04:30;11.70;99.90
56044;DHT22;41912;51.022;3.664;2022-12-24T04:06:58;11.70;99.90
56044;DHT22;41912;51.022;3.664;2022-12-24T04:09:24;11.60;99.90
56044;DHT22;41912;51.022;3.664;2022-12-24T04:11:49;11.70;99.90
56044;DHT22;41912;51.022;3.664;2022-12-24T04:14:15;11.70;99.90
56044;DHT22;41912;51.022;3.664;2022-12-24T04:16:41;11.60;99.90
56044;DHT22;41912;51.022;3.664;2022-12-24T04:19:06;11.60;99.90
56044;DHT22;41912;51.022;3.664;2022-12-24T04:21:32;11.60;99.90
56044;DHT22;41912;51.022;3.664;2022-12-24T04:23:58;11.60;99.90
56044;DHT22;41912;51.022;3.664;2022-12-24T04:26:24;11.60;99.90
56044;DHT22;41912;51.022;3.664;2022-12-24T04:28:49;11.50;99.90
56044;DHT22;41912;51.022;3.664;2022-12-24T04:31:16;11.50;99.90
56044;DHT22;41912;51.022;3.664;2022-12-24T04:33:42;11.50;99.90
56044;DHT22;41912;51.022;3.664;2022-12-24T04:36:14;11.60;99.90
56044;DHT22;41912;51.022;3.664;2022-12-24T04:38:41;11.50;99.90
56044;DHT22;41912;51.022;3.664;2022-12-24T04:41:16;11.50;99.90
56044;DHT22;41912;51.022;3.664;2022-12-24T04:43:42;11.50;99.90
56044;DHT22;41912;51.022;3.664;2022-12-24T04:46:13;11.50;99.90
56044;DHT22;41912;51.022;3.664;2022-12-24T04:48:39;11.50;99.90
56044;DHT22;41912;51.022;3.664;2022-12-24T04:51:07;11.50;99.90
56044;DHT22;41912;51.022;3.664;2022-12-24T04:53:34;11.50;99.90
56044;DHT22;41912;51.022;3.664;2022-12-24T04:56:00;11.50;99.90
56044;DHT22;41912;51.022;3.664;2022-12-24T04:58:26;11.50;99.90
56044;DHT22;41912;51.022;3.664;2022-12-24T05:00:52;11.50;99.90
56044;DHT22;41912;51.022;3.664;2022-12-24T05:03:18;11.60;99.90
56044;DHT22;41912;51.022;3.664;2022-12-24T05:05:43;11.60;99.90
56044;DHT22;41912;51.022;3.664;2022-12-24T05:08:09;11.60;99.90
56044;DHT22;41912;51.022;3.664;2022-12-24T05:10:35;11.60;99.90
56044;DHT22;41912;51.022;3.664;2022-12-24T05:13:00;11.50;99.90
56044;DHT22;41912;51.022;3.664;2022-12-24T05:15:26;11.50;99.90
56044;DHT22;41912;51.022;3.664;2022-12-24T05:17:52;11.50;99.90
56044;DHT22;41912;51.022;3.664;2022-12-24T05:20:17;11.50;99.90
56044;DHT22;41912;51.022;3.664;2022-12-24T05:22:43;11.50;99.90
56044;DHT22;41912;51.022;3.664;2022-12-24T05:25:38;11.50;99.90
56044;DHT22;41912;51.022;3.664;2022-12-24T05:28:23;11.50;99.90
56044;DHT22;41912;51.022;3.664;2022-12-24T05:30:49;11.50;99.90
56044;DHT22;41912;51.022;3.664;2022-12-24T05:33:15;11.60;99.90
56044;DHT22;41912;51.022;3.664;2022-12-24T05:35:40;11.60;99.90
56044;DHT22;41912;51.022;3.664;2022-12-24T05:38:06;11.50;99.90
56044;DHT22;41912;51.022;3.664;2022-12-24T05:40:32;11.50;99.90
56044;DHT22;41912;51.022;3.664;2022-12-24T05:42:57;11.50;99.90
56044;DHT22;41912;51.022;3.664;2022-12-24T05:45:23;11.50;99.90
56044;DHT22;41912;51.022;3.664;2022-12-24T05:47:48;11.50;99.90
56044;DHT22;41912;51.022;3.664;2022-12-24T05:50:14;11.50;99.90
56044;DHT22;41912;51.022;3.664;2022-12-24T05:52:40;11.50;99.90
56044;DHT22;41912;51.022;3.664;2022-12-24T05:55:06;11.50;99.90
56044;DHT22;41912;51.022;3.664;2022-12-24T05:57:31;11.50;99.90
56044;DHT22;41912;51.022;3.664;2022-12-24T05:59:57;11.50;99.90
56044;DHT22;41912;51.022;3.664;2022-12-24T06:02:23;11.50;99.90
56044;DHT22;41912;51.022;3.664;2022-12-24T06:04:48;11.50;99.90
56044;DHT22;41912;51.022;3.664;2022-12-24T06:07:14;11.60;99.90
56044;DHT22;41912;51.022;3.664;2022-12-24T06:09:39;11.60;99.90
56044;DHT22;41912;51.022;3.664;2022-12-24T06:12:05;11.60;99.90
56044;DHT22;41912;51.022;3.664;2022-12-24T06:14:31;11.60;99.90
56044;DHT22;41912;51.022;3.664;2022-12-24T06:16:56;11.60;99.90
56044;DHT22;41912;51.022;3.664;2022-12-24T06:19:22;11.60;99.90
56044;DHT22;41912;51.022;3.664;2022-12-24T06:21:48;11.60;99.90
56044;DHT22;41912;51.022;3.664;2022-12-24T06:24:13;11.60;99.90
56044;DHT22;41912;51.022;3.664;2022-12-24T06:26:39;11.60;99.90
56044;DHT22;41912;51.022;3.664;2022-12-24T06:29:05;11.60;99.90
56044;DHT22;41912;51.022;3.664;2022-12-24T06:31:31;11.60;99.90
56044;DHT22;41912;51.022;3.664;2022-12-24T06:33:56;11.60;99.90
56044;DHT22;41912;51.022;3.664;2022-12-24T06:36:24;11.50;99.90
56044;DHT22;41912;51.022;3.664;2022-12-24T06:38:50;11.50;99.90
56044;DHT22;41912;51.022;3.664;2022-12-24T06:41:17;11.40;99.90
56044;DHT22;41912;51.022;3.664;2022-12-24T06:43:44;11.40;99.90
56044;DHT22;41912;51.022;3.664;2022-12-24T06:46:10;11.40;99.90
56044;DHT22;41912;51.022;3.664;2022-12-24T06:48:36;11.50;99.90
56044;DHT22;41912;51.022;3.664;2022-12-24T06:51:02;11.50;99.90
56044;DHT22;41912;51.022;3.664;2022-12-24T06:53:28;11.50;99.90
56044;DHT22;41912;51.022;3.664;2022-12-24T06:56:04;11.50;99.90
56044;DHT22;41912;51.022;3.664;2022-12-24T06:58:30;11.50;99.90
56044;DHT22;41912;51.022;3.664;2022-12-24T07:00:55;11.50;99.90
56044;DHT22;41912;51.022;3.664;2022-12-24T07:03:21;11.50;99.90
56044;DHT22;41912;51.022;3.664;2022-12-24T07:05:47;11.50;99.90
56044;DHT22;41912;51.022;3.664;2022-12-24T07:08:12;11.50;99.90
56044;DHT22;41912;51.022;3.664;2022-12-24T07:10:38;11.50;99.90
56044;DHT22;41912;51.022;3.664;2022-12-24T07:13:04;11.50;99.90
56044;DHT22;41912;51.022;3.664;2022-12-24T07:15:29;11.50;99.90
56044;DHT22;41912;51.022;3.664;2022-12-24T07:17:55;11.50;99.90
56044;DHT22;41912;51.022;3.664;2022-12-24T07:20:20;11.50;99.90
56044;DHT22;41912;51.022;3.664;2022-12-24T07:22:46;11.50;99.90
56044;DHT22;41912;51.022;3.664;2022-12-24T07:25:13;11.50;99.90
56044;DHT22;41912;51.022;3.664;2022-12-24T07:27:39;11.50;99.90
56044;DHT22;41912;51.022;3.664;2022-12-24T07:30:06;11.40;99.90
56044;DHT22;41912;51.022;3.664;2022-12-24T07:32:32;11.40;99.90
56044;DHT22;41912;51.022;3.664;2022-12-24T07:34:58;11.40;99.90
56044;DHT22;41912;51.022;3.664;2022-12-24T07:37:23;11.50;99.90
56044;DHT22;41912;51.022;3.664;2022-12-24T07:39:49;11.40;99.90
56044;DHT22;41912;51.022;3.664;2022-12-24T07:42:14;11.50;99.90
56044;DHT22;41912;51.022;3.664;2022-12-24T07:44:40;11.50;99.90
56044;DHT22;41912;51.022;3.664;2022-12-24T07:47:06;11.40;99.90
56044;DHT22;41912;51.022;3.664;2022-12-24T07:49:31;11.40;99.90
56044;DHT22;41912;51.022;3.664;2022-12-24T07:51:57;11.40;99.90
56044;DHT22;41912;51.022;3.664;2022-12-24T07:54:23;11.40;99.90
56044;DHT22;41912;51.022;3.664;2022-12-24T07:56:48;11.30;99.90
56044;DHT22;41912;51.022;3.664;2022-12-24T07:59:14;11.30;99.90
56044;DHT22;41912;51.022;3.664;2022-12-24T08:01:40;11.20;99.90
56044;DHT22;41912;51.022;3.664;2022-12-24T08:04:06;11.20;99.90
56044;DHT22;41912;51.022;3.664;2022-12-24T08:06:32;11.20;99.90
56044;DHT22;41912;51.022;3.664;2022-12-24T08:08:57;11.20;99.90
56044;DHT22;41912;51.022;3.664;2022-12-24T08:11:23;11.20;99.90
56044;DHT22;41912;51.022;3.664;2022-12-24T08:13:48;11.20;99.90
56044;DHT22;41912;51.022;3.664;2022-12-24T08:16:14;11.20;99.90
56044;DHT22;41912;51.022;3.664;2022-12-24T08:18:40;11.30;99.90
56044;DHT22;41912;51.022;3.664;2022-12-24T08:21:07;11.30;99.90
56044;DHT22;41912;51.022;3.664;2022-12-24T08:23:33;11.30;99.90
56044;DHT22;41912;51.022;3.664;2022-12-24T08:28:44;11.40;99.90
56044;DHT22;41912;51.022;3.664;2022-12-24T08:31:09;11.40;99.90
56044;DHT22;41912;51.022;3.664;2022-12-24T08:33:35;11.40;99.90
56044;DHT22;41912;51.022;3.664;2022-12-24T08:36:01;11.40;99.90
56044;DHT22;41912;51.022;3.664;2022-12-24T08:38:28;11.40;99.90
56044;DHT22;41912;51.022;3.664;2022-12-24T08:40:54;11.40;99.90
56044;DHT22;41912;51.022;3.664;2022-12-24T08:43:20;11.50;99.90
56044;DHT22;41912;51.022;3.664;2022-12-24T08:45:47;11.50;99.90
56044;DHT22;41912;51.022;3.664;2022-12-24T08:48:14;11.50;99.90
56044;DHT22;41912;51.022;3.664;2022-12-24T08:50:40;11.50;99.90
56044;DHT22;41912;51.022;3.664;2022-12-24T08:53:07;11.50;99.90
56044;DHT22;41912;51.022;3.664;2022-12-24T08:55:32;11.50;99.90
56044;DHT22;41912;51.022;3.664;2022-12-24T08:57:59;11.50;99.90
56044;DHT22;41912;51.022;3.664;2022-12-24T09:00:25;11.50;99.90
56044;DHT22;41912;51.022;3.664;2022-12-24T09:02:51;11.50;99.90
56044;DHT22;41912;51.022;3.664;2022-12-24T09:05:17;11.60;99.90
56044;DHT22;41912;51.022;3.664;2022-12-24T09:07:43;11.60;99.90
56044;DHT22;41912;51.022;3.664;2022-12-24T09:10:09;11.60;99.90
56044;DHT22;41912;51.022;3.664;2022-12-24T09:12:35;11.60;99.90
56044;DHT22;41912;51.022;3.664;2022-12-24T09:15:02;11.60;99.90
56044;DHT22;41912;51.022;3.664;2022-12-24T09:17:28;11.60;99.90
56044;DHT22;41912;51.022;3.664;2022-12-24T09:19:57;11.60;99.90
56044;DHT22;41912;51.022;3.664;2022-12-24T09:22:22;11.60;99.90
56044;DHT22;41912;51.022;3.664;2022-12-24T09:24:48;11.60;99.90
56044;DHT22;41912;51.022;3.664;2022-12-24T09:27:13;11.60;99.90
56044;DHT22;41912;51.022;3.664;2022-12-24T09:29:39;11.60;99.90
56044;DHT22;41912;51.022;3.664;2022-12-24T09:32:08;11.60;99.90
56044;DHT22;41912;51.022;3.664;2022-12-24T09:34:33;11.60;99.90
56044;DHT22;41912;51.022;3.664;2022-12-24T09:37:02;11.60;99.90
56044;DHT22;41912;51.022;3.664;2022-12-24T09:39:28;11.60;99.90
56044;DHT22;41912;51.022;3.664;2022-12-24T09:44:47;11.60;99.90
56044;DHT22;41912;51.022;3.664;2022-12-24T09:47:27;11.60;99.90
56044;DHT22;41912;51.022;3.664;2022-12-24T09:49:55;11.60;99.90
56044;DHT22;41912;51.022;3.664;2022-12-24T09:52:32;11.70;99.90
56044;DHT22;41912;51.022;3.664;2022-12-24T09:55:12;11.70;99.90
56044;DHT22;41912;51.022;3.664;2022-12-24T09:57:42;11.70;99.90
56044;DHT22;41912;51.022;3.664;2022-12-24T10:00:29;11.70;99.90
56044;DHT22;41912;51.022;3.664;2022-12-24T10:02:57;11.70;99.90
56044;DHT22;41912;51.022;3.664;2022-12-24T10:06:16;11.70;99.90
56044;DHT22;41912;51.022;3.664;2022-12-24T10:11:30;11.70;99.90
56044;DHT22;41912;51.022;3.664;2022-12-24T10:27:50;11.80;99.90
56044;DHT22;41912;51.022;3.664;2022-12-24T10:30:19;11.80;99.90
56044;DHT22;41912;51.022;3.664;2022-12-24T10:32:51;11.80;99.90
56044;DHT22;41912;51.022;3.664;2022-12-24T10:35:35;11.80;99.90
56044;DHT22;41912;51.022;3.664;2022-12-24T10:38:14;11.80;99.90
56044;DHT22;41912;51.022;3.664;2022-12-24T10:40:43;11.80;99.90
56044;DHT22;41912;51.022;3.664;2022-12-24T10:43:21;11.80;99.90
56044;DHT22;41912;51.022;3.664;2022-12-24T10:45:55;11.90;99.90
56044;DHT22;41912;51.022;3.664;2022-12-24T10:48:31;11.90;99.90
56044;DHT22;41912;51.022;3.664;2022-12-24T10:51:31;11.90;99.90
56044;DHT22;41912;51.022;3.664;2022-12-24T10:53:58;11.90;99.90
56044;DHT22;41912;51.022;3.664;2022-12-24T10:56:25;11.90;99.90
56044;DHT22;41912;51.022;3.664;2022-12-24T10:58:54;11.90;99.90
56044;DHT22;41912;51.022;3.664;2022-12-24T11:01:20;11.90;99.90
56044;DHT22;41912;51.022;3.664;2022-12-24T11:04:06;12.00;99.90
56044;DHT22;41912;51.022;3.664;2022-12-24T11:06:50;11.90;99.90
56044;DHT22;41912;51.022;3.664;2022-12-24T11:09:28;11.90;99.90
56044;DHT22;41912;51.022;3.664;2022-12-24T11:11:56;12.00;99.90
56044;DHT22;41912;51.022;3.664;2022-12-24T11:14:22;11.90;99.90
56044;DHT22;41912;51.022;3.664;2022-12-24T11:16:53;11.90;99.90
56044;DHT22;41912;51.022;3.664;2022-12-24T11:19:29;11.90;99.90
56044;DHT22;41912;51.022;3.664;2022-12-24T11:22:07;11.90;99.90
56044;DHT22;41912;51.022;3.664;2022-12-24T11:24:41;12.00;99.90
56044;DHT22;41912;51.022;3.664;2022-12-24T11:30:30;12.00;99.90
56044;DHT22;41912;51.022;3.664;2022-12-24T11:35:32;12.00;99.90
56044;DHT22;41912;51.022;3.664;2022-12-24T11:40:45;12.10;99.90
56044;DHT22;41912;51.022;3.664;2022-12-24T11:43:22;12.10;99.90
56044;DHT22;41912;51.022;3.664;2022-12-24T11:45:56;12.10;99.90
56044;DHT22;41912;51.022;3.664;2022-12-24T11:48:30;12.10;99.90
56044;DHT22;41912;51.022;3.664;2022-12-24T11:51:04;12.20;99.90
56044;DHT22;41912;51.022;3.664;2022-12-24T11:53:43;12.20;99.90
56044;DHT22;41912;51.022;3.664;2022-12-24T11:56:37;12.30;99.90
56044;DHT22;41912;51.022;3.664;2022-12-24T12:01:46;12.20;99.90
56044;DHT22;41912;51.022;3.664;2022-12-24T12:04:21;12.20;99.90
56044;DHT22;41912;51.022;3.664;2022-12-24T12:09:21;12.30;99.90
56044;DHT22;41912;51.022;3.664;2022-12-24T12:12:03;12.40;99.90
56044;DHT22;41912;51.022;3.664;2022-12-24T12:14:38;12.40;99.90
56044;DHT22;41912;51.022;3.664;2022-12-24T12:19:44;12.40;99.90
56044;DHT22;41912;51.022;3.664;2022-12-24T12:24:50;12.40;99.90
56044;DHT22;41912;51.022;3.664;2022-12-24T12:27:40;12.40;99.90
56044;DHT22;41912;51.022;3.664;2022-12-24T12:30:15;12.40;99.90
56044;DHT22;41912;51.022;3.664;2022-12-24T12:35:30;12.50;99.90
56044;DHT22;41912;51.022;3.664;2022-12-24T12:38:04;12.50;99.90
56044;DHT22;41912;51.022;3.664;2022-12-24T12:44:12;12.50;99.90
56044;DHT22;41912;51.022;3.664;2022-12-24T12:50:13;12.60;99.90
56044;DHT22;41912;51.022;3.664;2022-12-24T12:58:09;12.50;99.90
56044;DHT22;41912;51.022;3.664;2022-12-24T13:00:38;12.60;99.90
56044;DHT22;41912;51.022;3.664;2022-12-24T13:20:30;12.80;99.90
56044;DHT22;41912;51.022;3.664;2022-12-24T13:22:59;12.80;99.90
56044;DHT22;41912;51.022;3.664;2022-12-24T13:27:56;12.70;99.90
56044;DHT22;41912;51.022;3.664;2022-12-24T13:33:01;12.80;99.90
56044;DHT22;41912;51.022;3.664;2022-12-24T13:35:33;12.80;99.90
56044;DHT22;41912;51.022;3.664;2022-12-24T13:40:51;12.80;99.90
56044;DHT22;41912;51.022;3.664;2022-12-24T13:43:16;12.80;99.90
56044;DHT22;41912;51.022;3.664;2022-12-24T13:45:44;12.80;99.90
56044;DHT22;41912;51.022;3.664;2022-12-24T13:50:37;12.90;99.90
56044;DHT22;41912;51.022;3.664;2022-12-24T13:53:16;12.90;99.90
56044;DHT22;41912;51.022;3.664;2022-12-24T13:56:31;13.00;99.90
56044;DHT22;41912;51.022;3.664;2022-12-24T13:58:43;13.00;99.90
56044;DHT22;41912;51.022;3.664;2022-12-24T14:01:17;13.10;99.90
56044;DHT22;41912;51.022;3.664;2022-12-24T14:03:51;13.10;99.90
56044;DHT22;41912;51.022;3.664;2022-12-24T14:06:25;13.10;99.90
56044;DHT22;41912;51.022;3.664;2022-12-24T14:08:54;13.10;99.90
56044;DHT22;41912;51.022;3.664;2022-12-24T14:11:24;13.10;99.90
56044;DHT22;41912;51.022;3.664;2022-12-24T14:13:53;13.10;99.90
56044;DHT22;41912;51.022;3.664;2022-12-24T14:16:44;13.10;99.90
56044;DHT22;41912;51.022;3.664;2022-12-24T14:19:32;13.20;99.90
56044;DHT22;41912;51.022;3.664;2022-12-24T14:24:37;13.20;99.90
56044;DHT22;41912;51.022;3.664;2022-12-24T14:27:13;13.20;99.90
56044;DHT22;41912;51.022;3.664;2022-12-24T14:29:51;13.20;99.90
56044;DHT22;41912;51.022;3.664;2022-12-24T14:32:18;13.20;99.90
56044;DHT22;41912;51.022;3.664;2022-12-24T14:34:44;13.10;99.90
56044;DHT22;41912;51.022;3.664;2022-12-24T14:37:11;13.10;99.90
56044;DHT22;41912;51.022;3.664;2022-12-24T14:39:44;13.00;99.90
56044;DHT22;41912;51.022;3.664;2022-12-24T14:42:38;13.00;99.90
56044;DHT22;41912;51.022;3.664;2022-12-24T14:45:22;13.00;99.90
56044;DHT22;41912;51.022;3.664;2022-12-24T14:56:30;12.90;99.90
56044;DHT22;41912;51.022;3.664;2022-12-24T14:58:56;12.90;99.90
56044;DHT22;41912;51.022;3.664;2022-12-24T15:01:30;12.90;99.90
56044;DHT22;41912;51.022;3.664;2022-12-24T15:06:31;12.90;99.90
56044;DHT22;41912;51.022;3.664;2022-12-24T15:08:58;12.90;99.90
56044;DHT22;41912;51.022;3.664;2022-12-24T15:11:24;12.90;99.90
56044;DHT22;41912;51.022;3.664;2022-12-24T15:13:53;12.90;99.90
56044;DHT22;41912;51.022;3.664;2022-12-24T15:16:34;13.00;99.90
56044;DHT22;41912;51.022;3.664;2022-12-24T15:19:18;13.00;99.90
56044;DHT22;41912;51.022;3.664;2022-12-24T15:21:45;12.90;99.90
56044;DHT22;41912;51.022;3.664;2022-12-24T15:24:31;12.90;99.90
56044;DHT22;41912;51.022;3.664;2022-12-24T15:26:58;13.00;99.90
56044;DHT22;41912;51.022;3.664;2022-12-24T15:29:29;12.90;99.90
56044;DHT22;41912;51.022;3.664;2022-12-24T15:32:00;12.90;99.90
56044;DHT22;41912;51.022;3.664;2022-12-24T15:34:38;12.80;99.90
56044;DHT22;41912;51.022;3.664;2022-12-24T15:37:33;12.90;99.90
56044;DHT22;41912;51.022;3.664;2022-12-24T15:42:30;12.90;99.90
56044;DHT22;41912;51.022;3.664;2022-12-24T15:45:18;12.90;99.90
56044;DHT22;41912;51.022;3.664;2022-12-24T15:47:59;12.80;99.90
56044;DHT22;41912;51.022;3.664;2022-12-24T15:50:36;12.80;99.90
56044;DHT22;41912;51.022;3.664;2022-12-24T15:53:05;12.80;99.90
56044;DHT22;41912;51.022;3.664;2022-12-24T15:55:40;12.80;99.90
56044;DHT22;41912;51.022;3.664;2022-12-24T16:04:00;12.70;99.90
56044;DHT22;41912;51.022;3.664;2022-12-24T16:06:25;12.70;99.90
56044;DHT22;41912;51.022;3.664;2022-12-24T16:08:53;12.70;99.90
56044;DHT22;41912;51.022;3.664;2022-12-24T16:11:34;12.70;99.90
56044;DHT22;41912;51.022;3.664;2022-12-24T16:14:10;12.70;99.90
56044;DHT22;41912;51.022;3.664;2022-12-24T16:16:39;12.70;99.90
56044;DHT22;41912;51.022;3.664;2022-12-24T16:19:13;12.70;99.90
56044;DHT22;41912;51.022;3.664;2022-12-24T16:21:41;12.60;99.90
56044;DHT22;41912;51.022;3.664;2022-12-24T16:26:52;12.60;99.90
56044;DHT22;41912;51.022;3.664;2022-12-24T16:29:18;12.60;99.90
56044;DHT22;41912;51.022;3.664;2022-12-24T16:31:52;12.50;99.90
56044;DHT22;41912;51.022;3.664;2022-12-24T16:34:21;12.50;99.90
56044;DHT22;41912;51.022;3.664;2022-12-24T16:36:47;12.50;99.90
56044;DHT22;41912;51.022;3.664;2022-12-24T16:39:16;12.50;99.90
56044;DHT22;41912;51.022;3.664;2022-12-24T16:41:50;12.50;99.90
56044;DHT22;41912;51.022;3.664;2022-12-24T16:44:34;12.40;99.90
56044;DHT22;41912;51.022;3.664;2022-12-24T16:47:00;12.50;99.90
56044;DHT22;41912;51.022;3.664;2022-12-24T16:49:26;12.40;99.90
56044;DHT22;41912;51.022;3.664;2022-12-24T16:51:53;12.40;99.90
56044;DHT22;41912;51.022;3.664;2022-12-24T16:54:18;12.40;99.90
56044;DHT22;41912;51.022;3.664;2022-12-24T16:56:50;12.30;99.90
56044;DHT22;41912;51.022;3.664;2022-12-24T16:59:21;12.30;99.90
56044;DHT22;41912;51.022;3.664;2022-12-24T17:01:47;12.30;99.90
56044;DHT22;41912;51.022;3.664;2022-12-24T17:04:14;12.30;99.90
56044;DHT22;41912;51.022;3.664;2022-12-24T17:06:40;12.20;99.90
56044;DHT22;41912;51.022;3.664;2022-12-24T17:09:07;12.20;99.90
56044;DHT22;41912;51.022;3.664;2022-12-24T17:11:34;12.20;99.90
56044;DHT22;41912;51.022;3.664;2022-12-24T17:13:59;12.20;99.90
56044;DHT22;41912;51.022;3.664;2022-12-24T17:16:28;12.10;99.90
56044;DHT22;41912;51.022;3.664;2022-12-24T17:18:56;12.10;99.90
56044;DHT22;41912;51.022;3.664;2022-12-24T17:21:22;12.10;99.90
56044;DHT22;41912;51.022;3.664;2022-12-24T17:23:49;12.10;99.90
56044;DHT22;41912;51.022;3.664;2022-12-24T17:26:14;12.00;99.90
56044;DHT22;41912;51.022;3.664;2022-12-24T17:28:41;11.90;99.90
56044;DHT22;41912;51.022;3.664;2022-12-24T17:31:08;11.90;99.90
56044;DHT22;41912;51.022;3.664;2022-12-24T17:33:38;11.90;99.90
56044;DHT22;41912;51.022;3.664;2022-12-24T17:36:04;11.90;99.90
56044;DHT22;41912;51.022;3.664;2022-12-24T17:38:30;11.90;99.90
56044;DHT22;41912;51.022;3.664;2022-12-24T17:41:04;11.90;99.90
56044;DHT22;41912;51.022;3.664;2022-12-24T17:43:31;11.90;99.90
56044;DHT22;41912;51.022;3.664;2022-12-24T17:46:13;11.90;99.90
56044;DHT22;41912;51.022;3.664;2022-12-24T17:48:43;11.90;99.90
56044;DHT22;41912;51.022;3.664;2022-12-24T17:51:14;11.90;99.90
56044;DHT22;41912;51.022;3.664;2022-12-24T17:53:41;11.90;99.90
56044;DHT22;41912;51.022;3.664;2022-12-24T17:56:08;11.90;99.90
56044;DHT22;41912;51.022;3.664;2022-12-24T17:58:39;11.80;99.90
56044;DHT22;41912;51.022;3.664;2022-12-24T18:01:05;11.80;99.90